Terminal Aerodrome Forecast
Issued by NWS Austin/San Antonio, TX

Home | Current Version | Previous Version | Text Only | Print | Product List | Glossary On
Versions: 1 2 3 4 5 6 7 8 9 10 11 12 13 14
000
FTUS44 KEWX 171741
TAFAUS
TAF
KAUS 171741Z 1718/1824 18012KT P6SM FEW040 SCT250
     FM181100 19005KT P6SM SCT015 BKN020
     FM181430 19011KT P6SM SCT030 SCT200=

USA.gov is the U.S. government's official web portal to all federal, state and local government web resources and services.